In Rescue
 
Open Full Screen Window  High Contrast Mode
November 29, 2022 8:44 AM CST
Weather Information
Wind Direction
  ---
Wind Speed
  00 kt (0 mph)
Wind Gust
  00 kt (0 mph)
Altimeter
29.69 in
Visibility
10 SM
Temperature
-08° C
18° F
Dewpoint
-12° C
10° F
Humidity
73%
1hr Rain Fall
00.00 in.
24hr Rain Fall
00.00 in.
Sky Condition
Clear
VFR

METAR KBJI 291444Z AUTO 00000KT 10SM CLR M08/M12 A2969 RMK AO2 T10851125

FAA Disclaimer: The data displayed is for advisory purposes only and is not to be used for flight planning or operations.